createdAt,value
2023-01-25T00:00:18.046Z,87
2023-01-25T00:01:25.217Z,87
2023-01-25T00:02:32.240Z,86
2023-01-25T00:03:39.211Z,86
2023-01-25T00:04:46.174Z,87
2023-01-25T00:05:53.129Z,87
2023-01-25T00:07:04.837Z,87
2023-01-25T00:08:12.990Z,86
2023-01-25T00:09:19.973Z,86
2023-01-25T00:10:28.926Z,86
2023-01-25T00:11:36.017Z,86
2023-01-25T00:12:42.936Z,87
2023-01-25T00:13:51.547Z,87
2023-01-25T00:15:00.579Z,87
2023-01-25T00:16:07.903Z,88
2023-01-25T00:17:15.217Z,88
2023-01-25T00:18:22.149Z,88
2023-01-25T00:19:29.115Z,87
2023-01-25T00:20:36.577Z,87
2023-01-25T00:21:43.529Z,87
2023-01-25T00:22:50.449Z,87
2023-01-25T00:23:57.524Z,87
2023-01-25T00:25:05.220Z,86
2023-01-25T00:26:12.149Z,86
2023-01-25T00:27:19.628Z,86
2023-01-25T00:28:26.617Z,87
2023-01-25T00:29:33.806Z,86
2023-01-25T00:30:40.769Z,86
2023-01-25T00:31:47.855Z,86
2023-01-25T00:32:59.940Z,86
2023-01-25T00:34:09.682Z,86
2023-01-25T00:35:26.992Z,86
2023-01-25T00:36:34.059Z,86
2023-01-25T00:37:41.069Z,86
2023-01-25T00:38:48.078Z,86
2023-01-25T00:39:55.266Z,86
2023-01-25T00:41:03.273Z,86
2023-01-25T00:42:10.791Z,86
2023-01-25T00:43:17.992Z,86
2023-01-25T00:44:25.877Z,86
2023-01-25T00:45:33.645Z,86
2023-01-25T00:46:40.686Z,86
2023-01-25T00:47:48.098Z,86
2023-01-25T00:48:55.229Z,86
2023-01-25T00:50:02.248Z,86
2023-01-25T00:51:09.830Z,87
2023-01-25T00:52:17.177Z,86
2023-01-25T00:53:24.541Z,87
2023-01-25T00:54:32.166Z,86
2023-01-25T00:55:40.037Z,86
2023-01-25T00:56:47.788Z,86
2023-01-25T00:57:57.560Z,87
2023-01-25T00:59:04.615Z,87
2023-01-25T01:00:12.260Z,87
2023-01-25T01:01:20.244Z,87
2023-01-25T01:02:27.485Z,87
2023-01-25T01:03:34.491Z,88
2023-01-25T01:04:41.970Z,87
2023-01-25T01:05:48.947Z,87
2023-01-25T01:07:01.174Z,87
2023-01-25T01:08:08.146Z,87
2023-01-25T01:09:15.550Z,87
2023-01-25T01:10:22.485Z,87
2023-01-25T01:11:29.930Z,87
2023-01-25T01:12:37.507Z,87
2023-01-25T01:13:44.345Z,87
2023-01-25T01:14:52.304Z,87
2023-01-25T01:15:59.827Z,88
2023-01-25T01:17:07.843Z,87
2023-01-25T01:18:14.963Z,87
2023-01-25T01:19:21.929Z,88
2023-01-25T01:20:28.906Z,87
2023-01-25T01:21:37.745Z,87
2023-01-25T01:22:44.620Z,87
2023-01-25T01:23:52.496Z,88
2023-01-25T01:24:59.451Z,87
2023-01-25T01:26:06.480Z,87
2023-01-25T01:27:13.388Z,87
2023-01-25T01:28:20.290Z,87
2023-01-25T01:29:27.748Z,87
2023-01-25T01:30:34.757Z,88
2023-01-25T01:31:41.857Z,88
2023-01-25T01:32:50.143Z,88
2023-01-25T01:33:57.969Z,87
2023-01-25T01:35:05.733Z,87
2023-01-25T01:36:12.608Z,87
2023-01-25T01:37:20.038Z,87
2023-01-25T01:38:27.306Z,87
2023-01-25T01:39:34.244Z,87
2023-01-25T01:40:41.088Z,87
2023-01-25T01:41:48.921Z,87
2023-01-25T01:42:56.813Z,87
2023-01-25T01:44:04.041Z,87
2023-01-25T01:45:11.003Z,87
2023-01-25T01:46:28.576Z,87
2023-01-25T01:47:38.715Z,87
2023-01-25T01:48:46.129Z,87
2023-01-25T01:49:55.796Z,86
2023-01-25T01:51:05.981Z,86
2023-01-25T01:52:18.626Z,86
2023-01-25T01:53:26.428Z,87
2023-01-25T01:54:33.496Z,86
2023-01-25T01:55:47.344Z,86
2023-01-25T01:56:54.286Z,86
2023-01-25T01:58:04.037Z,87
2023-01-25T01:59:11.483Z,86
2023-01-25T02:00:18.534Z,87
2023-01-25T02:01:32.496Z,87
2023-01-25T02:02:40.161Z,87
2023-01-25T02:03:47.536Z,87
2023-01-25T02:04:54.481Z,87
2023-01-25T02:06:01.408Z,87
2023-01-25T02:07:09.446Z,86
2023-01-25T02:08:19.720Z,87
2023-01-25T02:09:27.200Z,87
2023-01-25T02:10:34.364Z,87
2023-01-25T02:11:41.376Z,86
2023-01-25T02:12:49.232Z,86
2023-01-25T02:13:56.464Z,86
2023-01-25T02:15:04.551Z,86
2023-01-25T02:16:12.033Z,86
2023-01-25T02:17:22.261Z,86
2023-01-25T02:18:32.126Z,86
2023-01-25T02:19:39.193Z,86
2023-01-25T02:20:51.391Z,86
2023-01-25T02:21:58.473Z,86
2023-01-25T02:23:06.436Z,86
2023-01-25T02:24:13.489Z,86
2023-01-25T02:25:20.360Z,86
2023-01-25T02:26:27.598Z,86
2023-01-25T02:27:35.883Z,86
2023-01-25T02:28:43.325Z,86
2023-01-25T02:29:51.185Z,86
2023-01-25T02:30:58.394Z,86
2023-01-25T02:32:05.860Z,86
2023-01-25T02:33:13.284Z,86
2023-01-25T02:34:20.846Z,86
2023-01-25T02:35:27.868Z,86
2023-01-25T02:36:43.633Z,86
2023-01-25T02:37:51.549Z,86
2023-01-25T02:38:58.976Z,86
2023-01-25T02:40:06.074Z,86
2023-01-25T02:41:13.927Z,86
2023-01-25T02:42:20.869Z,86
2023-01-25T02:43:28.219Z,86
2023-01-25T02:44:35.463Z,86
2023-01-25T02:45:42.420Z,86
2023-01-25T02:46:49.813Z,86
2023-01-25T02:47:56.802Z,86
2023-01-25T02:49:03.815Z,86
2023-01-25T02:50:11.265Z,86
2023-01-25T02:51:18.364Z,86
2023-01-25T02:52:25.384Z,86
2023-01-25T02:53:32.327Z,85
2023-01-25T02:54:39.410Z,85
2023-01-25T02:55:46.915Z,85
2023-01-25T02:56:54.075Z,86
2023-01-25T02:58:01.617Z,85
2023-01-25T02:59:08.664Z,85
2023-01-25T03:00:15.651Z,85
2023-01-25T03:01:22.645Z,84
2023-01-25T03:02:30.183Z,84
2023-01-25T03:03:37.035Z,84
2023-01-25T03:04:44.643Z,85
2023-01-25T03:05:51.864Z,84
2023-01-25T03:06:58.962Z,85
2023-01-25T03:08:05.936Z,84
2023-01-25T03:09:13.294Z,84
2023-01-25T03:10:21.092Z,84
2023-01-25T03:11:28.084Z,84
2023-01-25T03:12:36.797Z,84
2023-01-25T03:13:44.680Z,84
2023-01-25T03:14:51.640Z,84
2023-01-25T03:15:58.630Z,84
2023-01-25T03:17:08.706Z,84
2023-01-25T03:18:15.670Z,84
2023-01-25T03:19:22.611Z,84
2023-01-25T03:20:29.652Z,84
2023-01-25T03:21:36.629Z,84
2023-01-25T03:22:43.611Z,84
2023-01-25T03:23:51.721Z,84
2023-01-25T03:24:58.771Z,84
2023-01-25T03:26:05.780Z,84
2023-01-25T03:27:12.730Z,84
2023-01-25T03:28:19.730Z,84
2023-01-25T03:29:26.673Z,84
2023-01-25T03:30:34.569Z,84
2023-01-25T03:31:41.562Z,84
2023-01-25T03:32:49.416Z,84
2023-01-25T03:33:57.281Z,83
2023-01-25T03:35:04.424Z,83
2023-01-25T03:36:12.087Z,83
2023-01-25T03:37:19.133Z,83
2023-01-25T03:38:26.949Z,83
2023-01-25T03:39:33.925Z,83
2023-01-25T03:40:40.852Z,83
2023-01-25T03:41:48.909Z,83
2023-01-25T03:42:55.914Z,83
2023-01-25T03:44:02.874Z,83
2023-01-25T03:45:10.151Z,83
2023-01-25T03:46:16.832Z,83
2023-01-25T03:47:23.815Z,83
2023-01-25T03:48:31.356Z,83
2023-01-25T03:49:38.313Z,83
2023-01-25T03:50:45.228Z,83
2023-01-25T03:51:52.172Z,83
2023-01-25T03:52:59.187Z,83
2023-01-25T03:54:06.432Z,83
2023-01-25T03:55:13.456Z,83
2023-01-25T03:56:20.732Z,83
2023-01-25T03:57:28.202Z,83
2023-01-25T03:58:35.192Z,83
2023-01-25T03:59:42.113Z,83
2023-01-25T04:00:49.398Z,83
2023-01-25T04:01:57.491Z,83
2023-01-25T04:03:05.292Z,83
2023-01-25T04:04:12.328Z,84
2023-01-25T04:05:19.508Z,83
2023-01-25T04:06:26.583Z,84
2023-01-25T04:07:33.741Z,85
2023-01-25T04:08:40.715Z,86
2023-01-25T04:09:48.624Z,86
2023-01-25T04:10:56.114Z,85
2023-01-25T04:12:08.164Z,84
2023-01-25T04:13:15.677Z,84
2023-01-25T04:14:35.241Z,84
2023-01-25T04:15:30.131Z,84
2023-01-25T04:16:37.688Z,84
2023-01-25T04:17:44.728Z,84
2023-01-25T04:18:51.665Z,84
2023-01-25T04:19:58.559Z,83
2023-01-25T04:21:05.606Z,83
2023-01-25T04:22:12.520Z,83
2023-01-25T04:23:20.413Z,83
2023-01-25T04:24:28.229Z,83
2023-01-25T04:25:35.139Z,84
2023-01-25T04:26:42.197Z,84
2023-01-25T04:27:49.170Z,83
2023-01-25T04:28:56.716Z,83
2023-01-25T04:30:04.800Z,83
2023-01-25T04:31:13.566Z,84
2023-01-25T04:32:21.313Z,84
2023-01-25T04:33:28.281Z,83
2023-01-25T04:34:35.337Z,83
2023-01-25T04:35:42.349Z,83
2023-01-25T04:36:49.677Z,83
2023-01-25T04:37:56.872Z,83
2023-01-25T04:39:03.818Z,83
2023-01-25T04:40:12.188Z,83
2023-01-25T04:41:19.269Z,83
2023-01-25T04:42:26.428Z,83
2023-01-25T04:43:33.611Z,83
2023-01-25T04:44:40.616Z,83
2023-01-25T04:45:47.815Z,83
2023-01-25T04:46:54.709Z,83
2023-01-25T04:48:01.691Z,83
2023-01-25T04:49:09.040Z,83
2023-01-25T04:50:16.832Z,83
2023-01-25T04:51:24.741Z,83
2023-01-25T04:52:32.274Z,83
2023-01-25T04:53:40.152Z,83
2023-01-25T04:54:47.167Z,83
2023-01-25T04:55:54.182Z,83
2023-01-25T04:57:01.202Z,83
2023-01-25T04:58:08.405Z,83
2023-01-25T04:59:17.220Z,83
2023-01-25T05:00:24.976Z,83
2023-01-25T05:01:33.086Z,83
2023-01-25T05:02:40.036Z,84
2023-01-25T05:03:47.143Z,83
2023-01-25T05:04:54.072Z,83
2023-01-25T05:06:01.480Z,83
2023-01-25T05:07:09.397Z,83
2023-01-25T05:08:16.320Z,83
2023-01-25T05:09:24.618Z,83
2023-01-25T05:10:31.568Z,83
2023-01-25T05:11:38.744Z,83
2023-01-25T05:12:45.870Z,83
2023-01-25T05:13:52.844Z,83
2023-01-25T05:14:59.855Z,83
2023-01-25T05:16:08.952Z,83
2023-01-25T05:17:13.860Z,83
2023-01-25T05:18:20.960Z,83
2023-01-25T05:19:28.020Z,83
2023-01-25T05:20:35.038Z,83
2023-01-25T05:21:44.430Z,83
2023-01-25T05:22:56.092Z,83
2023-01-25T05:24:03.599Z,83
2023-01-25T05:25:11.131Z,83
2023-01-25T05:26:23.012Z,83
2023-01-25T05:27:35.590Z,83
2023-01-25T05:28:42.581Z,84
2023-01-25T05:29:50.282Z,84
2023-01-25T05:30:57.297Z,83
2023-01-25T05:32:04.623Z,83
2023-01-25T05:33:16.609Z,83
2023-01-25T05:34:24.736Z,83
2023-01-25T05:35:31.711Z,83
2023-01-25T05:36:38.720Z,83
2023-01-25T05:37:46.357Z,83
2023-01-25T05:38:53.377Z,83
2023-01-25T05:40:00.541Z,83
2023-01-25T05:41:08.192Z,83
2023-01-25T05:42:15.195Z,83
2023-01-25T05:43:22.906Z,83
2023-01-25T05:44:31.427Z,83
2023-01-25T05:45:38.550Z,83
2023-01-25T05:46:45.638Z,83
2023-01-25T05:47:52.596Z,83
2023-01-25T05:48:59.843Z,83
2023-01-25T05:50:08.769Z,83
2023-01-25T05:51:14.667Z,83
2023-01-25T05:52:22.701Z,83
2023-01-25T05:53:30.614Z,83
2023-01-25T05:54:37.875Z,83
2023-01-25T05:55:44.783Z,83
2023-01-25T05:56:51.739Z,83
2023-01-25T05:57:58.751Z,83
2023-01-25T05:59:06.330Z,83
2023-01-25T06:00:14.168Z,83
2023-01-25T06:01:22.121Z,83
2023-01-25T06:02:29.832Z,83
2023-01-25T06:03:36.718Z,83
2023-01-25T06:04:43.575Z,83
2023-01-25T06:05:50.766Z,83
2023-01-25T06:06:57.764Z,83
2023-01-25T06:08:05.901Z,83
2023-01-25T06:09:12.872Z,83
2023-01-25T06:10:19.819Z,83
2023-01-25T06:11:26.746Z,83
2023-01-25T06:12:33.975Z,83
2023-01-25T06:13:41.471Z,83
2023-01-25T06:14:50.216Z,83
2023-01-25T06:15:57.863Z,83
2023-01-25T06:17:04.776Z,83
2023-01-25T06:18:11.765Z,83
2023-01-25T06:19:18.760Z,83
2023-01-25T06:20:26.354Z,83
2023-01-25T06:21:34.451Z,83
2023-01-25T06:22:41.439Z,83
2023-01-25T06:23:48.649Z,83
2023-01-25T06:24:55.575Z,83
2023-01-25T06:26:03.415Z,83
2023-01-25T06:27:10.459Z,83
2023-01-25T06:28:19.343Z,83
2023-01-25T06:29:26.323Z,83
2023-01-25T06:30:33.281Z,82
2023-01-25T06:31:40.979Z,82
2023-01-25T06:32:48.008Z,82
2023-01-25T06:33:55.018Z,82
2023-01-25T06:35:03.017Z,82
2023-01-25T06:36:10.558Z,82
2023-01-25T06:37:17.424Z,82
2023-01-25T06:38:24.416Z,82
2023-01-25T06:39:31.625Z,82
2023-01-25T06:40:39.486Z,82
2023-01-25T06:41:47.040Z,82
2023-01-25T06:42:54.841Z,82
2023-01-25T06:44:10.359Z,82
2023-01-25T06:45:17.375Z,82
2023-01-25T06:46:24.700Z,82
2023-01-25T06:47:31.670Z,83
2023-01-25T06:48:39.507Z,82
2023-01-25T06:49:47.047Z,82
2023-01-25T06:50:54.043Z,82
2023-01-25T06:52:06.355Z,82
2023-01-25T06:53:13.969Z,82
2023-01-25T06:54:21.407Z,82
2023-01-25T06:55:28.451Z,82
2023-01-25T06:56:35.420Z,82
2023-01-25T06:57:43.117Z,82
2023-01-25T06:58:50.080Z,82
2023-01-25T06:59:57.076Z,82
2023-01-25T07:01:04.606Z,82
2023-01-25T07:02:16.746Z,82
2023-01-25T07:03:23.744Z,82
2023-01-25T07:04:31.582Z,82
2023-01-25T07:05:39.240Z,82
2023-01-25T07:06:47.057Z,82
2023-01-25T07:07:55.276Z,82
2023-01-25T07:09:02.398Z,82
2023-01-25T07:10:13.278Z,82
2023-01-25T07:11:20.203Z,82
2023-01-25T07:12:27.991Z,82
2023-01-25T07:13:35.504Z,82
2023-01-25T07:14:42.407Z,82
2023-01-25T07:15:49.952Z,82
2023-01-25T07:17:03.885Z,82
2023-01-25T07:18:16.109Z,82
2023-01-25T07:19:17.330Z,82
2023-01-25T07:20:26.527Z,82
2023-01-25T07:21:33.710Z,82
2023-01-25T07:22:41.349Z,82
2023-01-25T07:23:48.756Z,82
2023-01-25T07:24:56.108Z,82
2023-01-25T07:26:03.017Z,82
2023-01-25T07:27:09.859Z,82
2023-01-25T07:28:16.771Z,82
2023-01-25T07:29:23.835Z,82
2023-01-25T07:30:31.600Z,82
2023-01-25T07:31:38.592Z,82
2023-01-25T07:32:45.484Z,82
2023-01-25T07:33:53.346Z,82
2023-01-25T07:35:00.376Z,82
2023-01-25T07:36:07.476Z,82
2023-01-25T07:37:14.501Z,82
2023-01-25T07:38:21.665Z,82
2023-01-25T07:39:29.159Z,81
2023-01-25T07:40:36.097Z,82
2023-01-25T07:41:43.153Z,82
2023-01-25T07:42:50.644Z,82
2023-01-25T07:43:59.139Z,82
2023-01-25T07:45:06.076Z,82
2023-01-25T07:46:13.154Z,82
2023-01-25T07:47:20.099Z,82
2023-01-25T07:48:28.083Z,82
2023-01-25T07:49:35.420Z,82
2023-01-25T07:50:43.923Z,82
2023-01-25T07:51:50.803Z,82
2023-01-25T07:52:59.514Z,82
2023-01-25T07:54:09.634Z,82
2023-01-25T07:55:16.659Z,82
2023-01-25T07:56:24.157Z,82
2023-01-25T07:57:31.007Z,82
2023-01-25T07:58:37.821Z,82
2023-01-25T07:59:45.133Z,82
2023-01-25T08:00:52.041Z,82
2023-01-25T08:01:59.656Z,82
2023-01-25T08:03:07.069Z,82
2023-01-25T08:04:14.079Z,82
2023-01-25T08:05:21.751Z,82
2023-01-25T08:06:29.195Z,82
2023-01-25T08:07:36.975Z,82
2023-01-25T08:08:44.011Z,82
2023-01-25T08:09:51.052Z,82
2023-01-25T08:10:58.443Z,82
2023-01-25T08:12:08.446Z,82
2023-01-25T08:13:14.855Z,82
2023-01-25T08:14:21.955Z,82
2023-01-25T08:15:30.315Z,82
2023-01-25T08:16:37.215Z,82
2023-01-25T08:17:44.744Z,82
2023-01-25T08:18:52.415Z,82
2023-01-25T08:19:59.823Z,82
2023-01-25T08:21:06.771Z,82
2023-01-25T08:22:13.759Z,82
2023-01-25T08:23:22.099Z,82
2023-01-25T08:24:31.443Z,82
2023-01-25T08:25:38.697Z,82
2023-01-25T08:26:46.127Z,81
2023-01-25T08:27:53.111Z,82
2023-01-25T08:29:01.616Z,82
2023-01-25T08:30:08.472Z,82
2023-01-25T08:31:19.345Z,81
2023-01-25T08:32:26.711Z,82
2023-01-25T08:33:35.353Z,82
2023-01-25T08:34:42.715Z,82
2023-01-25T08:35:50.059Z,81
2023-01-25T08:36:59.901Z,82
2023-01-25T08:38:06.916Z,82
2023-01-25T08:39:14.495Z,82
2023-01-25T08:40:22.417Z,82
2023-01-25T08:41:30.029Z,82
2023-01-25T08:42:37.886Z,82
2023-01-25T08:43:45.893Z,81
2023-01-25T08:44:54.068Z,81
2023-01-25T08:46:01.088Z,81
2023-01-25T08:47:09.071Z,81
2023-01-25T08:48:16.394Z,81
2023-01-25T08:49:23.373Z,81
2023-01-25T08:50:30.359Z,81
2023-01-25T08:51:37.847Z,81
2023-01-25T08:52:44.943Z,81
2023-01-25T08:53:51.853Z,81
2023-01-25T08:54:58.864Z,81
2023-01-25T08:56:07.435Z,81
2023-01-25T08:57:14.431Z,81
2023-01-25T08:58:21.528Z,81
2023-01-25T08:59:29.177Z,80
2023-01-25T09:00:36.540Z,81
2023-01-25T09:01:44.546Z,81
2023-01-25T09:02:51.471Z,81
2023-01-25T09:03:59.105Z,81
2023-01-25T09:05:05.903Z,81
2023-01-25T09:06:15.736Z,81
2023-01-25T09:07:23.607Z,81
2023-01-25T09:08:31.483Z,81
2023-01-25T09:09:39.098Z,81
2023-01-25T09:10:46.006Z,81
2023-01-25T09:11:52.838Z,81
2023-01-25T09:12:59.627Z,81
2023-01-25T09:14:06.907Z,80
2023-01-25T09:15:14.161Z,80
2023-01-25T09:16:21.462Z,80
2023-01-25T09:17:34.210Z,80
2023-01-25T09:18:41.641Z,80
2023-01-25T09:19:48.551Z,80
2023-01-25T09:20:55.951Z,80
2023-01-25T09:22:03.287Z,79
2023-01-25T09:23:10.711Z,80
2023-01-25T09:24:17.823Z,79
2023-01-25T09:25:24.683Z,80
2023-01-25T09:26:32.385Z,80
2023-01-25T09:27:39.523Z,80
2023-01-25T09:28:46.485Z,80
2023-01-25T09:30:01.643Z,79
2023-01-25T09:31:19.034Z,80
2023-01-25T09:32:09.609Z,79
2023-01-25T09:33:16.445Z,80
2023-01-25T09:34:23.443Z,80
2023-01-25T09:35:30.367Z,80
2023-01-25T09:36:37.407Z,80
2023-01-25T09:37:44.297Z,81
2023-01-25T09:38:51.604Z,80
2023-01-25T09:39:58.966Z,80
2023-01-25T09:41:06.414Z,80
2023-01-25T09:42:15.249Z,80
2023-01-25T09:43:32.147Z,79
2023-01-25T09:44:47.663Z,79
2023-01-25T09:46:05.258Z,79
2023-01-25T09:47:20.530Z,79
2023-01-25T09:48:30.608Z,79
2023-01-25T09:49:40.890Z,79
2023-01-25T09:50:53.046Z,79
2023-01-25T09:52:09.217Z,79
2023-01-25T09:53:19.269Z,79
2023-01-25T09:54:31.825Z,79
2023-01-25T09:55:38.853Z,79
2023-01-25T09:56:46.789Z,79
2023-01-25T09:57:54.291Z,79
2023-01-25T09:59:01.398Z,79
2023-01-25T10:00:09.746Z,79
2023-01-25T10:01:33.086Z,79
2023-01-25T10:02:35.968Z,79
2023-01-25T10:03:47.994Z,79
2023-01-25T10:05:01.554Z,79
2023-01-25T10:06:12.354Z,79
2023-01-25T10:07:22.765Z,79
2023-01-25T10:08:34.393Z,78
2023-01-25T10:09:52.114Z,78
2023-01-25T10:11:04.790Z,78
2023-01-25T10:12:12.705Z,79
2023-01-25T10:13:19.616Z,79
2023-01-25T10:14:28.245Z,79
2023-01-25T10:15:35.597Z,79
2023-01-25T10:16:48.295Z,78
2023-01-25T10:17:55.741Z,78
2023-01-25T10:19:05.452Z,78
2023-01-25T10:20:23.709Z,78
2023-01-25T10:21:41.784Z,78
2023-01-25T10:22:51.657Z,78
2023-01-25T10:24:05.114Z,78
2023-01-25T10:25:22.411Z,78
2023-01-25T10:26:34.424Z,78
2023-01-25T10:27:41.408Z,78
2023-01-25T10:28:51.389Z,78
2023-01-25T10:30:06.860Z,78
2023-01-25T10:31:24.236Z,77
2023-01-25T10:32:44.626Z,78
2023-01-25T10:33:46.697Z,78
2023-01-25T10:34:56.934Z,78
2023-01-25T10:36:01.519Z,78
2023-01-25T10:37:09.424Z,78
2023-01-25T10:38:17.360Z,78
2023-01-25T10:39:29.549Z,78
2023-01-25T10:40:36.496Z,78
2023-01-25T10:41:48.679Z,77
2023-01-25T10:43:04.702Z,77
2023-01-25T10:44:13.857Z,77
2023-01-25T10:45:26.789Z,77
2023-01-25T10:46:35.041Z,77
2023-01-25T10:47:42.058Z,77
2023-01-25T10:48:53.085Z,77
2023-01-25T10:50:00.515Z,77
2023-01-25T10:51:09.228Z,76
2023-01-25T10:52:16.524Z,76
2023-01-25T10:53:26.228Z,76
2023-01-25T10:54:40.975Z,76
2023-01-25T10:55:48.631Z,76
2023-01-25T10:57:05.795Z,75
2023-01-25T10:58:12.731Z,76
2023-01-25T10:59:20.329Z,75
2023-01-25T11:00:30.316Z,75
2023-01-25T11:01:40.823Z,75
2023-01-25T11:02:47.695Z,75
2023-01-25T11:03:55.132Z,75
2023-01-25T11:05:02.392Z,75
2023-01-25T11:06:21.475Z,75
2023-01-25T11:07:33.619Z,74
2023-01-25T11:08:42.092Z,74
2023-01-25T11:09:48.967Z,75
2023-01-25T11:10:56.120Z,75
2023-01-25T11:12:04.467Z,74
2023-01-25T11:13:21.771Z,74
2023-01-25T11:14:29.197Z,75
2023-01-25T11:15:36.910Z,75
2023-01-25T11:16:46.438Z,74
2023-01-25T11:17:53.418Z,74
2023-01-25T11:19:09.579Z,74
2023-01-25T11:20:28.309Z,74
2023-01-25T11:21:35.638Z,74
2023-01-25T11:22:43.092Z,74
2023-01-25T11:23:52.633Z,74
2023-01-25T11:25:07.936Z,73
2023-01-25T11:26:26.535Z,73
2023-01-25T11:27:34.694Z,73
2023-01-25T11:28:41.547Z,74
2023-01-25T11:29:49.609Z,74
2023-01-25T11:31:07.830Z,74
2023-01-25T11:32:18.249Z,74
2023-01-25T11:33:25.294Z,74
2023-01-25T11:34:32.464Z,74
2023-01-25T11:35:39.413Z,74
2023-01-25T11:36:51.612Z,74
2023-01-25T11:38:09.051Z,75
2023-01-25T11:39:15.928Z,75
2023-01-25T11:40:33.276Z,75
2023-01-25T11:41:45.649Z,75
2023-01-25T11:42:52.743Z,75
2023-01-25T11:44:09.983Z,74
2023-01-25T11:45:24.806Z,75
2023-01-25T11:46:42.359Z,75
2023-01-25T11:47:57.563Z,74
2023-01-25T11:49:14.759Z,74
2023-01-25T11:50:27.713Z,74
2023-01-25T11:51:35.593Z,74
2023-01-25T11:52:45.486Z,74
2023-01-25T11:53:58.567Z,75
2023-01-25T11:55:11.683Z,75
2023-01-25T11:56:29.052Z,74
2023-01-25T11:57:46.605Z,74
2023-01-25T11:58:56.747Z,74
2023-01-25T12:00:13.057Z,74
2023-01-25T12:01:25.001Z,74
2023-01-25T12:02:40.482Z,74
2023-01-25T12:03:52.709Z,74
2023-01-25T12:05:09.620Z,74
2023-01-25T12:06:16.937Z,74
2023-01-25T12:07:34.366Z,74
2023-01-25T12:08:51.298Z,74
2023-01-25T12:10:09.308Z,73
2023-01-25T12:11:24.365Z,74
2023-01-25T12:12:37.749Z,75
2023-01-25T12:13:50.022Z,74
2023-01-25T12:15:07.238Z,74
2023-01-25T12:16:22.274Z,74
2023-01-25T12:17:39.886Z,74
2023-01-25T12:18:54.905Z,74
2023-01-25T12:20:05.576Z,74
2023-01-25T12:21:30.142Z,73
2023-01-25T12:22:28.038Z,74
2023-01-25T12:23:38.226Z,74
2023-01-25T12:24:50.293Z,75
2023-01-25T12:26:05.938Z,74
2023-01-25T12:27:26.029Z,74
2023-01-25T12:28:38.052Z,73
2023-01-25T12:29:44.912Z,73
2023-01-25T12:30:51.893Z,73
2023-01-25T12:31:59.233Z,73
2023-01-25T12:33:14.529Z,73
2023-01-25T12:34:19.746Z,73
2023-01-25T12:35:27.013Z,73
2023-01-25T12:36:34.601Z,73
2023-01-25T12:37:42.837Z,73
2023-01-25T12:38:49.802Z,72
2023-01-25T12:40:00.678Z,73
2023-01-25T12:41:10.196Z,72
2023-01-25T12:42:29.099Z,72
2023-01-25T12:43:36.865Z,72
2023-01-25T12:44:48.932Z,72
2023-01-25T12:45:57.560Z,72
2023-01-25T12:47:04.433Z,73
2023-01-25T12:48:22.130Z,72
2023-01-25T12:49:30.885Z,72
2023-01-25T12:50:38.979Z,72
2023-01-25T12:51:46.199Z,72
2023-01-25T12:52:53.330Z,72
2023-01-25T12:54:08.191Z,72
2023-01-25T12:55:21.544Z,72
2023-01-25T12:56:29.030Z,72
2023-01-25T12:57:36.058Z,72
2023-01-25T12:58:55.292Z,72
2023-01-25T13:00:07.998Z,72
2023-01-25T13:01:23.097Z,73
2023-01-25T13:02:38.366Z,73
2023-01-25T13:03:53.445Z,73
2023-01-25T13:05:10.870Z,72
2023-01-25T13:06:18.112Z,72
2023-01-25T13:07:27.956Z,72
2023-01-25T13:08:35.237Z,72
2023-01-25T13:09:48.317Z,72
2023-01-25T13:11:00.832Z,72
2023-01-25T13:12:14.168Z,72
2023-01-25T13:13:21.592Z,73
2023-01-25T13:14:29.588Z,73
2023-01-25T13:15:39.308Z,72
2023-01-25T13:16:46.404Z,72
2023-01-25T13:17:54.493Z,71
2023-01-25T13:19:02.565Z,71
2023-01-25T13:20:11.613Z,71
2023-01-25T13:21:23.247Z,71
2023-01-25T13:22:38.631Z,71
2023-01-25T13:23:48.606Z,71
2023-01-25T13:24:56.712Z,72
2023-01-25T13:26:06.924Z,72
2023-01-25T13:27:19.123Z,71
2023-01-25T13:28:31.425Z,71
2023-01-25T13:29:39.112Z,71
2023-01-25T13:30:47.036Z,71
2023-01-25T13:31:55.987Z,71
2023-01-25T13:33:01.390Z,71
2023-01-25T13:34:08.740Z,71
2023-01-25T13:35:26.367Z,72
2023-01-25T13:36:39.375Z,72
2023-01-25T13:37:46.707Z,72
2023-01-25T13:38:54.131Z,72
2023-01-25T13:40:08.741Z,71
2023-01-25T13:41:08.071Z,71
2023-01-25T13:42:17.800Z,72
2023-01-25T13:43:27.639Z,72
2023-01-25T13:44:35.112Z,72
2023-01-25T13:45:42.396Z,72
2023-01-25T13:46:50.159Z,71
2023-01-25T13:48:02.897Z,71
2023-01-25T13:49:10.172Z,71
2023-01-25T13:50:17.587Z,71
2023-01-25T13:51:30.802Z,71
2023-01-25T13:52:39.301Z,71
2023-01-25T13:53:46.316Z,71
2023-01-25T13:54:59.763Z,72
2023-01-25T13:56:07.740Z,72
2023-01-25T13:57:15.038Z,72
2023-01-25T13:58:25.232Z,71
2023-01-25T13:59:32.630Z,71
2023-01-25T14:00:40.600Z,71
2023-01-25T14:01:53.696Z,71
2023-01-25T14:03:00.748Z,72
2023-01-25T14:04:09.331Z,71
2023-01-25T14:05:16.425Z,71
2023-01-25T14:06:23.719Z,71
2023-01-25T14:07:33.897Z,71
2023-01-25T14:08:40.849Z,71
2023-01-25T14:09:49.695Z,71
2023-01-25T14:10:57.098Z,71
2023-01-25T14:12:04.482Z,71
2023-01-25T14:13:13.694Z,71
2023-01-25T14:14:20.656Z,71
2023-01-25T14:15:35.824Z,71
2023-01-25T14:16:42.936Z,71
2023-01-25T14:17:50.252Z,72
2023-01-25T14:19:08.115Z,71
2023-01-25T14:20:26.936Z,71
2023-01-25T14:21:34.425Z,70
2023-01-25T14:22:41.751Z,71
2023-01-25T14:23:51.781Z,71
2023-01-25T14:24:59.815Z,71
2023-01-25T14:26:16.562Z,71
2023-01-25T14:27:29.351Z,70
2023-01-25T14:28:39.220Z,71
2023-01-25T14:29:46.679Z,71
2023-01-25T14:30:53.806Z,71
2023-01-25T14:32:00.993Z,71
2023-01-25T14:33:08.050Z,71
2023-01-25T14:34:20.318Z,71
2023-01-25T14:35:41.825Z,71
2023-01-25T14:36:40.655Z,71
2023-01-25T14:37:47.724Z,70
2023-01-25T14:38:54.939Z,70
2023-01-25T14:40:02.332Z,71
2023-01-25T14:41:10.346Z,71
2023-01-25T14:42:28.716Z,71
2023-01-25T14:43:36.251Z,70
2023-01-25T14:44:43.319Z,71
2023-01-25T14:45:50.349Z,70
2023-01-25T14:46:59.843Z,70
2023-01-25T14:48:17.884Z,70
2023-01-25T14:49:37.336Z,71
2023-01-25T14:50:44.316Z,71
2023-01-25T14:51:51.461Z,71
2023-01-25T14:53:03.691Z,71
2023-01-25T14:54:17.171Z,71
2023-01-25T14:55:24.075Z,71
2023-01-25T14:56:31.432Z,71
2023-01-25T14:57:38.766Z,71
2023-01-25T14:58:50.781Z,71
2023-01-25T14:59:53.737Z,71
2023-01-25T15:01:01.179Z,71
2023-01-25T15:02:08.356Z,71
2023-01-25T15:03:24.416Z,71
2023-01-25T15:04:33.280Z,71
2023-01-25T15:05:38.770Z,71
2023-01-25T15:06:45.820Z,71
2023-01-25T15:07:52.912Z,71
2023-01-25T15:09:00.368Z,71
2023-01-25T15:10:09.434Z,71
2023-01-25T15:11:26.589Z,71
2023-01-25T15:12:39.155Z,71
2023-01-25T15:13:46.419Z,71
2023-01-25T15:14:53.912Z,71
2023-01-25T15:16:01.223Z,71
2023-01-25T15:17:08.463Z,71
2023-01-25T15:18:16.392Z,71
2023-01-25T15:19:33.692Z,71
2023-01-25T15:20:40.862Z,71
2023-01-25T15:21:48.785Z,71
2023-01-25T15:22:56.311Z,71
2023-01-25T15:24:14.190Z,71
2023-01-25T15:25:24.177Z,71
2023-01-25T15:26:30.825Z,72
2023-01-25T15:27:38.210Z,72
2023-01-25T15:28:45.340Z,72
2023-01-25T15:29:55.815Z,72
2023-01-25T15:31:02.915Z,72
2023-01-25T15:32:09.895Z,72
2023-01-25T15:33:22.740Z,72
2023-01-25T15:34:33.615Z,72
2023-01-25T15:35:41.024Z,72
2023-01-25T15:36:48.105Z,72
2023-01-25T15:37:57.027Z,72
2023-01-25T15:39:04.283Z,73
2023-01-25T15:40:14.664Z,73
2023-01-25T15:41:22.891Z,73
2023-01-25T15:42:30.040Z,73
2023-01-25T15:43:38.251Z,73
2023-01-25T15:44:46.061Z,73
2023-01-25T15:45:53.215Z,73
2023-01-25T15:47:00.408Z,73
2023-01-25T15:48:08.691Z,73
2023-01-25T15:49:16.088Z,73
2023-01-25T15:50:29.453Z,73
2023-01-25T15:51:36.452Z,73
2023-01-25T15:52:43.580Z,73
2023-01-25T15:53:50.684Z,73
2023-01-25T15:55:01.609Z,73
2023-01-25T15:56:07.253Z,73
2023-01-25T15:57:19.325Z,73
2023-01-25T15:58:36.279Z,73
2023-01-25T15:59:43.692Z,73
2023-01-25T16:00:50.770Z,73
2023-01-25T16:01:58.167Z,73
2023-01-25T16:03:05.771Z,73
2023-01-25T16:04:13.533Z,73
2023-01-25T16:05:20.482Z,73
2023-01-25T16:06:27.746Z,74
2023-01-25T16:07:40.554Z,73
2023-01-25T16:08:49.577Z,74
2023-01-25T16:09:57.794Z,74
2023-01-25T16:11:05.019Z,74
2023-01-25T16:12:12.679Z,74
2023-01-25T16:13:19.368Z,74
2023-01-25T16:14:28.232Z,74
2023-01-25T16:15:35.729Z,74
2023-01-25T16:16:42.818Z,74
2023-01-25T16:17:49.852Z,74
2023-01-25T16:18:59.031Z,74
2023-01-25T16:20:06.358Z,74